Alexander, New York
Current Conditions -  °F | °C
As of 7:54 AM on Saturday 20 Dec 2014 (Local Time) from KBUF Reporting Station
Broken Clouds Broken Clouds  
Wind Chill: 20°   Ceiling: 2300
Heat Index: 27°   Visibility: 9mi
Dew Point: 22°   Wind: 6mph
Humidity: 81%   Direction: 330°NNW
Pressure: 30.28"   Gusts: NA
Location:  42.9°N, 78.26°W
Report Text: KBUF 201254Z 33005KT 9SM BKN023 BKN200 M03/M06 A3028 RMK AO2 SLP263 T10281056
Loading
Personal Weather Stations






























Interactive Weather Map New forecast layout! Learn more

10-Day Weather Forecast

Advertisements
Track Severe Weather on mobile